Levant, KS

10:35 AM CDT on August 27, 2016 (GMT -0500)
SCFarms | | Change Station
Active Advisory: Dense Fog Advisory Active Notice: Public Information Statement

Elev 3293 ft 39.30 °N, 101.20 °W | Updated 1 minute ago

Mostly Cloudy
Mostly Cloudy
63.1 °F
Feels Like 63.1 °F
N
0.0
Wind Variable Wind from ESE
Gusts 4.0 mph

Today
High -- | Low -- °F
--% Chance of Precip.
Yesterday
High -- | Low -- °F
Precip. -- in
Pressure 30.09 in
Visibility 10.0 miles
Clouds Mostly Cloudy 200 ft
Dew Point 62 °F
Humidity 96%
Rainfall 0.00 in
Snow Depth Not available.
7:09 AM 8:22 PM
Waning Crescent, 23% visible
METAR KCBK 271515Z AUTO 09003KT 10SM BKN002 16/16 A3009 RMK AO2
Pressure 30.09 in
Visibility 10.0 miles
Clouds Mostly Cloudy 200 ft
Dew Point 62 °F
Humidity 96%
Rainfall 0.00 in
Snow Depth Not available.
7:09 AM 8:22 PM
Waning Crescent, 23% visible
METAR KCBK 271515Z AUTO 09003KT 10SM BKN002 16/16 A3009 RMK AO2

10-Day Weather Forecast

Almanac

Astronomy

Aug. 27, 2016 Rise Set
Actual Time
Civil Twilight
Nautical Twilight
Astronomical Twilight
Moon
Length of Visible Light
Length of Day
Tomorrow will be .
, % of the Moon is Illuminated

Today's Extremes

State Highs State Lows

Community

WunderPhotos

Upload Photos

1,935,358 photos uploaded!

WunderBlog® & News

Nearby

Air Quality

  Air Quality AQ Index Pollutant
Not available.

Snow Depth

Station Depth Elevation

Earthquake Activity

City Distance Mag. Time & Date
Minimum magnitude displayed is 2.5.

Coastal Water Temperatures

Place Temperature

Stations

Nearby Weather Stations

Station Location Temp. Windchill Dew Point Humidity Wind Precip. Elev Updated Type
                   

Watches & Warnings

Dense Fog Advisory
Issued: 9:36 AM CDT Aug. 27, 2016 – National Weather Service

... Dense fog advisory now in effect until 11 am MDT /noon CDT/
this morning...

* timing/duration... dense fog expected through the mid morning
hours.

Precautionary/preparedness actions...

A dense fog advisory means visibility will frequently be one
quarter mile or less in fog. If driving... slow down and be
prepared for sudden drops in visibility... especially near
rivers... creeks and low lying areas. Use your headlights on low
beams and drive defensively.